ナイロビ の空港の天気 - METARとTAF

ジョモ・ケニヤッタ国際空港 ( HKJK / NBO ) - ケニア ナイロビ
飛行場実況気象(Metar)
観測時間10/20 07:00 EAT (10/20 04:00 UTC)
風向・風速南南東 2m/s
視程10km以上
天気現象
全天の8割程度の雲 雲底高度 610m
気温17℃
湿度94%
気圧1022hPa
METARHKJK 200400Z 16003KT 9999 BKN020 17/16 Q1022 NOSIG
過去の天気等 Google飛行場航空写真 Wunderground天気予報

過去48時間のMETAR

飛行場予報(TAF)
発表時間: 10/20 02:00 EAT (10/19 23:00 UTC)
予報対象時間: 20日3時 EAT ~ 21日9時 EAT
風向・風速南南東 3m/s
視程10km以上
少しの雲 雲底高度 240m
全天の8割程度の雲 雲底高度 550m
20日3時 EAT ~ 20日9時 EAT に一時的に
天気現象弱い雨
全天の4割程度の雲 雲底高度 180m
全天を覆う雲 雲底高度 m
20日11時 EAT ~ 20日14時 EAT に徐々に
風向・風速東 4m/s
天気現象運行に影響にある天気現象が終了
全天の8割程度の雲 雲底高度 790m
20日15時 EAT ~ 20日21時 EAT に一時的に
天気現象弱いしゅう雨
少しの積乱雲 雲底高度 550m
全天の8割程度の雲 雲底高度 580m
全天の8割程度の雲 雲底高度 2440m
20日23時 EAT ~ 21日2時 EAT に徐々に
風向・風速北北東 3m/s
天気現象運行に影響にある天気現象が終了
全天の8割程度の雲 雲底高度 550m
TAF HKJK 192300Z 2000/2106 15005KT 9999 FEW008 BKN018
TEMPO 2000/2006 -RA SCT006 OVC
BECMG 2008/2011 10007KT NSW BKN026
TEMPO 2012/2018 -SHRA FEW018CB BKN019 BKN080
BECMG 2020/2023 03005K NSW BKN018